sensor_id;sensor_type;location;lat;lon;timestamp;pressure;altitude;pressure_sealevel;temperature;humidity
13314;BME280;6725;48.112;11.604;2022-12-07T00:01:05;94872.28;;;3.88;100.00
13314;BME280;6725;48.112;11.604;2022-12-07T00:03:30;94878.47;;;3.88;100.00
13314;BME280;6725;48.112;11.604;2022-12-07T00:06:00;94871.47;;;3.84;100.00
13314;BME280;6725;48.112;11.604;2022-12-07T00:08:26;94869.53;;;3.81;100.00
13314;BME280;6725;48.112;11.604;2022-12-07T00:10:51;94870.69;;;3.80;100.00
13314;BME280;6725;48.112;11.604;2022-12-07T00:13:17;94879.19;;;3.82;100.00
13314;BME280;6725;48.112;11.604;2022-12-07T00:15:42;94867.66;;;3.85;100.00
13314;BME280;6725;48.112;11.604;2022-12-07T00:18:08;94868.03;;;3.87;100.00
13314;BME280;6725;48.112;11.604;2022-12-07T00:20:33;94866.88;;;3.88;100.00
13314;BME280;6725;48.112;11.604;2022-12-07T00:22:59;94867.69;;;3.92;100.00
13314;BME280;6725;48.112;11.604;2022-12-07T00:25:24;94864.66;;;3.97;100.00
13314;BME280;6725;48.112;11.604;2022-12-07T00:27:49;94867.69;;;3.92;100.00
13314;BME280;6725;48.112;11.604;2022-12-07T00:30:15;94863.84;;;3.93;100.00
13314;BME280;6725;48.112;11.604;2022-12-07T00:32:40;94875.41;;;3.93;100.00
13314;BME280;6725;48.112;11.604;2022-12-07T00:35:06;94885.03;;;3.91;100.00
13314;BME280;6725;48.112;11.604;2022-12-07T00:37:31;94878.50;;;3.92;100.00
13314;BME280;6725;48.112;11.604;2022-12-07T00:39:57;94877.72;;;3.91;100.00
13314;BME280;6725;48.112;11.604;2022-12-07T00:42:22;94881.97;;;3.92;100.00
13314;BME280;6725;48.112;11.604;2022-12-07T00:44:47;94887.00;;;3.94;100.00
13314;BME280;6725;48.112;11.604;2022-12-07T00:47:13;94887.75;;;3.91;100.00
13314;BME280;6725;48.112;11.604;2022-12-07T00:49:38;94891.19;;;3.88;100.00
13314;BME280;6725;48.112;11.604;2022-12-07T00:52:03;94893.88;;;3.88;100.00
13314;BME280;6725;48.112;11.604;2022-12-07T00:54:29;94890.78;;;3.86;100.00
13314;BME280;6725;48.112;11.604;2022-12-07T00:56:54;94898.84;;;3.79;100.00
13314;BME280;6725;48.112;11.604;2022-12-07T00:59:19;94904.97;;;3.76;100.00
13314;BME280;6725;48.112;11.604;2022-12-07T01:01:45;94899.16;;;3.74;100.00
13314;BME280;6725;48.112;11.604;2022-12-07T01:04:10;94907.25;;;3.74;100.00
13314;BME280;6725;48.112;11.604;2022-12-07T01:06:35;94903.75;;;3.70;100.00
13314;BME280;6725;48.112;11.604;2022-12-07T01:09:02;94906.06;;;3.68;100.00
13314;BME280;6725;48.112;11.604;2022-12-07T01:11:29;94894.53;;;3.71;100.00
13314;BME280;6725;48.112;11.604;2022-12-07T01:13:57;94902.19;;;3.69;100.00
13314;BME280;6725;48.112;11.604;2022-12-07T01:16:24;94902.13;;;3.62;100.00
13314;BME280;6725;48.112;11.604;2022-12-07T01:18:52;94899.84;;;3.64;100.00
13314;BME280;6725;48.112;11.604;2022-12-07T01:21:21;94908.69;;;3.61;100.00
13314;BME280;6725;48.112;11.604;2022-12-07T01:23:47;94913.66;;;3.58;100.00
13314;BME280;6725;48.112;11.604;2022-12-07T01:26:16;94903.63;;;3.56;100.00
13314;BME280;6725;48.112;11.604;2022-12-07T01:28:42;94898.63;;;3.58;100.00
13314;BME280;6725;48.112;11.604;2022-12-07T01:31:12;94896.72;;;3.62;100.00
13314;BME280;6725;48.112;11.604;2022-12-07T01:33:41;94907.53;;;3.62;100.00
13314;BME280;6725;48.112;11.604;2022-12-07T01:36:29;94917.16;;;3.63;100.00
13314;BME280;6725;48.112;11.604;2022-12-07T01:38:57;94919.06;;;3.58;100.00
13314;BME280;6725;48.112;11.604;2022-12-07T01:41:28;94914.38;;;3.52;100.00
13314;BME280;6725;48.112;11.604;2022-12-07T01:46:32;94911.31;;;3.53;100.00
13314;BME280;6725;48.112;11.604;2022-12-07T01:48:58;94902.84;;;3.55;100.00
13314;BME280;6725;48.112;11.604;2022-12-07T01:51:24;94909.84;;;3.60;100.00
13314;BME280;6725;48.112;11.604;2022-12-07T01:53:50;94902.88;;;3.58;100.00
13314;BME280;6725;48.112;11.604;2022-12-07T01:56:20;94899.41;;;3.58;100.00
13314;BME280;6725;48.112;11.604;2022-12-07T01:58:59;94895.91;;;3.58;100.00
13314;BME280;6725;48.112;11.604;2022-12-07T02:01:25;94901.31;;;3.58;100.00
13314;BME280;6725;48.112;11.604;2022-12-07T02:03:51;94902.06;;;3.54;100.00
13314;BME280;6725;48.112;11.604;2022-12-07T02:06:19;94898.97;;;3.53;100.00
13314;BME280;6725;48.112;11.604;2022-12-07T02:08:46;94899.00;;;3.56;100.00
13314;BME280;6725;48.112;11.604;2022-12-07T02:11:12;94901.31;;;3.58;100.00
13314;BME280;6725;48.112;11.604;2022-12-07T02:13:39;94898.22;;;3.56;100.00
13314;BME280;6725;48.112;11.604;2022-12-07T02:29:33;94877.41;;;3.56;100.00
13314;BME280;6725;48.112;11.604;2022-12-07T02:32:08;94882.78;;;3.53;100.00
13314;BME280;6725;48.112;11.604;2022-12-07T02:37:19;94876.22;;;3.53;100.00
13314;BME280;6725;48.112;11.604;2022-12-07T02:39:55;94874.31;;;3.58;100.00
13314;BME280;6725;48.112;11.604;2022-12-07T02:42:28;94869.72;;;3.58;100.00
13314;BME280;6725;48.112;11.604;2022-12-07T02:44:56;94872.38;;;3.54;100.00
13314;BME280;6725;48.112;11.604;2022-12-07T02:47:24;94862.00;;;3.57;100.00
13314;BME280;6725;48.112;11.604;2022-12-07T02:49:50;94853.91;;;3.57;100.00
13314;BME280;6725;48.112;11.604;2022-12-07T02:52:16;94858.13;;;3.58;100.00
13314;BME280;6725;48.112;11.604;2022-12-07T02:54:41;94852.75;;;3.58;100.00
13314;BME280;6725;48.112;11.604;2022-12-07T02:57:28;94850.47;;;3.60;100.00
13314;BME280;6725;48.112;11.604;2022-12-07T03:05:38;94854.28;;;3.58;100.00
13314;BME280;6725;48.112;11.604;2022-12-07T03:10:54;94841.56;;;3.56;100.00
13314;BME280;6725;48.112;11.604;2022-12-07T03:13:28;94843.47;;;3.55;100.00
13314;BME280;6725;48.112;11.604;2022-12-07T03:18:46;94838.06;;;3.55;100.00
13314;BME280;6725;48.112;11.604;2022-12-07T03:21:17;94829.19;;;3.54;100.00
13314;BME280;6725;48.112;11.604;2022-12-07T03:23:45;94838.47;;;3.57;100.00
13314;BME280;6725;48.112;11.604;2022-12-07T03:26:15;94835.75;;;3.53;100.00
13314;BME280;6725;48.112;11.604;2022-12-07T03:28:49;94831.88;;;3.54;100.00
13314;BME280;6725;48.112;11.604;2022-12-07T03:31:19;94835.00;;;3.57;100.00
13314;BME280;6725;48.112;11.604;2022-12-07T03:36:36;94835.00;;;3.57;100.00
13314;BME280;6725;48.112;11.604;2022-12-07T03:41:43;94823.84;;;3.62;100.00
13314;BME280;6725;48.112;11.604;2022-12-07T03:44:09;94821.91;;;3.58;100.00
13314;BME280;6725;48.112;11.604;2022-12-07T03:55:08;94811.81;;;3.48;100.00
13314;BME280;6725;48.112;11.604;2022-12-07T03:57:37;94806.41;;;3.52;100.00
13314;BME280;6725;48.112;11.604;2022-12-07T04:00:07;94800.66;;;3.53;100.00
13314;BME280;6725;48.112;11.604;2022-12-07T04:02:33;94799.50;;;3.54;100.00
13314;BME280;6725;48.112;11.604;2022-12-07T04:04:58;94784.84;;;3.52;100.00
13314;BME280;6725;48.112;11.604;2022-12-07T04:07:24;94782.19;;;3.56;100.00
13314;BME280;6725;48.112;11.604;2022-12-07T04:09:50;94783.31;;;3.54;100.00
13314;BME280;6725;48.112;11.604;2022-12-07T04:12:15;94775.63;;;3.57;100.00
13314;BME280;6725;48.112;11.604;2022-12-07T04:14:40;94782.19;;;3.59;100.00
13314;BME280;6725;48.112;11.604;2022-12-07T04:17:06;94776.44;;;3.61;100.00
13314;BME280;6725;48.112;11.604;2022-12-07T04:19:33;94774.09;;;3.56;100.00
13314;BME280;6725;48.112;11.604;2022-12-07T04:22:01;94762.50;;;3.58;100.00
13314;BME280;6725;48.112;11.604;2022-12-07T04:24:26;94761.78;;;3.62;100.00
13314;BME280;6725;48.112;11.604;2022-12-07T04:26:52;94762.16;;;3.60;100.00
13314;BME280;6725;48.112;11.604;2022-12-07T04:29:18;94761.81;;;3.65;100.00
13314;BME280;6725;48.112;11.604;2022-12-07T04:31:44;94750.22;;;3.65;100.00
13314;BME280;6725;48.112;11.604;2022-12-07T04:34:10;94752.94;;;3.65;100.00
13314;BME280;6725;48.112;11.604;2022-12-07T04:36:36;94747.13;;;3.63;100.00
13314;BME280;6725;48.112;11.604;2022-12-07T04:39:02;94742.88;;;3.58;100.00
13314;BME280;6725;48.112;11.604;2022-12-07T04:41:28;94737.09;;;3.60;100.00
13314;BME280;6725;48.112;11.604;2022-12-07T04:43:55;94726.31;;;3.60;100.00
13314;BME280;6725;48.112;11.604;2022-12-07T04:46:22;94715.50;;;3.60;100.00
13314;BME280;6725;48.112;11.604;2022-12-07T04:48:48;94705.47;;;3.57;100.00
13314;BME280;6725;48.112;11.604;2022-12-07T04:51:16;94699.66;;;3.54;100.00
13314;BME280;6725;48.112;11.604;2022-12-07T04:53:43;94681.91;;;3.53;100.00
13314;BME280;6725;48.112;11.604;2022-12-07T04:56:09;94674.56;;;3.47;100.00
13314;BME280;6725;48.112;11.604;2022-12-07T04:58:34;94671.06;;;3.43;100.00
13314;BME280;6725;48.112;11.604;2022-12-07T05:00:59;94659.84;;;3.37;100.00
13314;BME280;6725;48.112;11.604;2022-12-07T05:03:25;94658.28;;;3.36;100.00
13314;BME280;6725;48.112;11.604;2022-12-07T05:05:50;94645.19;;;3.38;100.00
13314;BME280;6725;48.112;11.604;2022-12-07T05:08:15;94639.75;;;3.35;100.00
13314;BME280;6725;48.112;11.604;2022-12-07T05:10:41;94633.59;;;3.34;100.00
13314;BME280;6725;48.112;11.604;2022-12-07T05:13:06;94626.69;;;3.33;100.00
13314;BME280;6725;48.112;11.604;2022-12-07T05:15:31;94619.72;;;3.32;100.00
13314;BME280;6725;48.112;11.604;2022-12-07T05:17:57;94612.41;;;3.33;100.00
13314;BME280;6725;48.112;11.604;2022-12-07T05:20:22;94605.84;;;3.30;100.00
13314;BME280;6725;48.112;11.604;2022-12-07T05:22:47;94597.75;;;3.30;100.00
13314;BME280;6725;48.112;11.604;2022-12-07T05:25:13;94592.34;;;3.30;100.00
13314;BME280;6725;48.112;11.604;2022-12-07T05:27:38;94584.25;;;3.30;100.00
13314;BME280;6725;48.112;11.604;2022-12-07T05:30:05;94580.78;;;3.30;100.00
13314;BME280;6725;48.112;11.604;2022-12-07T05:32:30;94567.25;;;3.23;100.00
13314;BME280;6725;48.112;11.604;2022-12-07T05:34:55;94561.84;;;3.23;100.00
13314;BME280;6725;48.112;11.604;2022-12-07T05:37:21;94553.75;;;3.23;100.00
13314;BME280;6725;48.112;11.604;2022-12-07T05:39:46;94537.19;;;3.24;100.00
13314;BME280;6725;48.112;11.604;2022-12-07T05:42:12;94534.91;;;3.26;100.00
13314;BME280;6725;48.112;11.604;2022-12-07T05:44:38;94529.53;;;3.26;100.00
13314;BME280;6725;48.112;11.604;2022-12-07T05:47:03;94527.16;;;3.18;100.00
13314;BME280;6725;48.112;11.604;2022-12-07T05:49:29;94521.75;;;3.18;100.00
13314;BME280;6725;48.112;11.604;2022-12-07T05:51:54;94518.69;;;3.19;100.00
13314;BME280;6725;48.112;11.604;2022-12-07T05:54:20;94524.47;;;3.18;100.00
13314;BME280;6725;48.112;11.604;2022-12-07T05:56:45;94526.00;;;3.19;100.00
13314;BME280;6725;48.112;11.604;2022-12-07T05:59:11;94523.28;;;3.15;100.00
13314;BME280;6725;48.112;11.604;2022-12-07T06:04:14;94523.28;;;3.15;100.00
13314;BME280;6725;48.112;11.604;2022-12-07T06:06:39;94513.25;;;3.16;100.00
13314;BME280;6725;48.112;11.604;2022-12-07T06:09:05;94520.97;;;3.14;100.00
13314;BME280;6725;48.112;11.604;2022-12-07T06:11:30;94523.25;;;3.12;100.00
13314;BME280;6725;48.112;11.604;2022-12-07T06:14:14;94527.88;;;3.08;100.00
13314;BME280;6725;48.112;11.604;2022-12-07T06:16:40;94543.25;;;3.07;100.00
13314;BME280;6725;48.112;11.604;2022-12-07T06:19:06;94541.72;;;3.06;100.00
13314;BME280;6725;48.112;11.604;2022-12-07T06:21:31;94541.38;;;3.11;100.00
13314;BME280;6725;48.112;11.604;2022-12-07T06:23:57;94544.88;;;3.15;100.00
13314;BME280;6725;48.112;11.604;2022-12-07T06:26:22;94550.22;;;3.08;100.00
13314;BME280;6725;48.112;11.604;2022-12-07T06:28:47;94550.59;;;3.10;100.00
13314;BME280;6725;48.112;11.604;2022-12-07T06:31:13;94555.25;;;3.13;100.00
13314;BME280;6725;48.112;11.604;2022-12-07T06:33:38;94559.47;;;3.14;100.00
13314;BME280;6725;48.112;11.604;2022-12-07T06:36:04;94567.56;;;3.14;100.00
13314;BME280;6725;48.112;11.604;2022-12-07T06:38:29;94573.75;;;3.15;100.00
13314;BME280;6725;48.112;11.604;2022-12-07T06:40:55;94586.41;;;3.07;100.00
13314;BME280;6725;48.112;11.604;2022-12-07T06:43:20;94583.38;;;3.12;100.00
13314;BME280;6725;48.112;11.604;2022-12-07T06:45:45;94590.28;;;3.10;100.00
13314;BME280;6725;48.112;11.604;2022-12-07T06:48:11;94600.72;;;3.11;100.00
13314;BME280;6725;48.112;11.604;2022-12-07T06:50:36;94608.81;;;3.11;100.00
13314;BME280;6725;48.112;11.604;2022-12-07T06:53:02;94615.69;;;3.05;100.00
13314;BME280;6725;48.112;11.604;2022-12-07T06:55:27;94621.13;;;3.12;100.00
13314;BME280;6725;48.112;11.604;2022-12-07T06:57:52;94631.91;;;3.12;100.00
13314;BME280;6725;48.112;11.604;2022-12-07T07:00:18;94638.84;;;3.13;100.00
13314;BME280;6725;48.112;11.604;2022-12-07T07:02:43;94644.97;;;3.10;100.00
13314;BME280;6725;48.112;11.604;2022-12-07T07:05:09;94655.41;;;3.12;100.00
13314;BME280;6725;48.112;11.604;2022-12-07T07:07:34;94657.34;;;3.11;100.00
13314;BME280;6725;48.112;11.604;2022-12-07T07:10:00;94662.38;;;3.16;100.00
13314;BME280;6725;48.112;11.604;2022-12-07T07:12:25;94667.34;;;3.14;100.00
13314;BME280;6725;48.112;11.604;2022-12-07T07:14:50;94676.59;;;3.13;100.00
13314;BME280;6725;48.112;11.604;2022-12-07T07:17:16;94682.81;;;3.17;100.00
13314;BME280;6725;48.112;11.604;2022-12-07T07:19:41;94696.28;;;3.17;100.00
13314;BME280;6725;48.112;11.604;2022-12-07T07:22:06;94697.47;;;3.20;100.00
13314;BME280;6725;48.112;11.604;2022-12-07T07:24:32;94699.03;;;3.24;100.00
13314;BME280;6725;48.112;11.604;2022-12-07T07:26:57;94702.16;;;3.26;100.00
13314;BME280;6725;48.112;11.604;2022-12-07T07:29:22;94715.28;;;3.28;100.00
13314;BME280;6725;48.112;11.604;2022-12-07T07:31:48;94715.97;;;3.21;100.00
13314;BME280;6725;48.112;11.604;2022-12-07T07:34:13;94725.94;;;3.17;100.00
13314;BME280;6725;48.112;11.604;2022-12-07T07:36:38;94730.91;;;3.12;100.00
13314;BME280;6725;48.112;11.604;2022-12-07T07:39:04;94739.38;;;3.10;100.00
13314;BME280;6725;48.112;11.604;2022-12-07T07:41:30;94742.84;;;3.11;100.00
13314;BME280;6725;48.112;11.604;2022-12-07T07:43:55;94747.06;;;3.08;100.00
13314;BME280;6725;48.112;11.604;2022-12-07T07:46:21;94749.78;;;3.12;100.00
13314;BME280;6725;48.112;11.604;2022-12-07T07:48:46;94753.66;;;3.14;100.00
13314;BME280;6725;48.112;11.604;2022-12-07T07:51:11;94761.00;;;3.17;100.00
13314;BME280;6725;48.112;11.604;2022-12-07T07:53:37;94754.47;;;3.18;100.00
13314;BME280;6725;48.112;11.604;2022-12-07T07:56:02;94768.38;;;3.24;100.00
13314;BME280;6725;48.112;11.604;2022-12-07T07:58:28;94771.06;;;3.20;100.00
13314;BME280;6725;48.112;11.604;2022-12-07T08:00:53;94768.03;;;3.25;100.00
13314;BME280;6725;48.112;11.604;2022-12-07T08:03:19;94777.63;;;3.19;100.00
13314;BME280;6725;48.112;11.604;2022-12-07T08:05:44;94785.72;;;3.23;100.00
13314;BME280;6725;48.112;11.604;2022-12-07T08:08:10;94784.19;;;3.25;100.00
13314;BME280;6725;48.112;11.604;2022-12-07T08:10:35;94772.28;;;3.26;100.00
13314;BME280;6725;48.112;11.604;2022-12-07T08:13:02;94789.53;;;3.18;100.00
13314;BME280;6725;48.112;11.604;2022-12-07T08:15:37;94791.94;;;3.27;100.00
13314;BME280;6725;48.112;11.604;2022-12-07T08:18:03;94786.91;;;3.25;100.00
13314;BME280;6725;48.112;11.604;2022-12-07T08:20:33;94788.47;;;3.26;100.00
13314;BME280;6725;48.112;11.604;2022-12-07T08:22:59;94794.69;;;3.34;100.00
13314;BME280;6725;48.112;11.604;2022-12-07T08:25:25;94807.03;;;3.35;100.00
13314;BME280;6725;48.112;11.604;2022-12-07T08:27:51;94814.00;;;3.39;100.00
13314;BME280;6725;48.112;11.604;2022-12-07T08:30:17;94820.19;;;3.40;100.00
13314;BME280;6725;48.112;11.604;2022-12-07T08:32:47;94823.34;;;3.49;100.00
13314;BME280;6725;48.112;11.604;2022-12-07T08:35:13;94829.56;;;3.53;100.00
13314;BME280;6725;48.112;11.604;2022-12-07T08:37:39;94831.16;;;3.58;100.00
13314;BME280;6725;48.112;11.604;2022-12-07T08:40:05;94830.41;;;3.61;100.00
13314;BME280;6725;48.112;11.604;2022-12-07T08:42:31;94838.56;;;3.68;100.00
13314;BME280;6725;48.112;11.604;2022-12-07T08:45:08;94842.06;;;3.72;100.00
13314;BME280;6725;48.112;11.604;2022-12-07T08:47:37;94856.78;;;3.78;100.00
13314;BME280;6725;48.112;11.604;2022-12-07T08:50:05;94868.72;;;3.77;100.00
13314;BME280;6725;48.112;11.604;2022-12-07T08:52:32;94879.19;;;3.82;100.00
13314;BME280;6725;48.112;11.604;2022-12-07T08:54:59;94887.00;;;3.94;100.00
13314;BME280;6725;48.112;11.604;2022-12-07T08:57:26;94910.59;;;4.00;100.00
13314;BME280;6725;48.112;11.604;2022-12-07T08:59:53;94925.66;;;4.01;100.00
13314;BME280;6725;48.112;11.604;2022-12-07T09:02:19;94931.09;;;4.08;100.00
13314;BME280;6725;48.112;11.604;2022-12-07T09:04:44;94935.06;;;4.18;100.00
13314;BME280;6725;48.112;11.604;2022-12-07T09:07:10;94958.16;;;4.12;100.00
13314;BME280;6725;48.112;11.604;2022-12-07T09:09:35;94972.81;;;4.11;100.00
13314;BME280;6725;48.112;11.604;2022-12-07T09:12:01;94982.81;;;4.07;100.00
13314;BME280;6725;48.112;11.604;2022-12-07T09:14:26;94989.34;;;4.06;100.00
13314;BME280;6725;48.112;11.604;2022-12-07T09:16:52;94985.63;;;4.17;100.00
13314;BME280;6725;48.112;11.604;2022-12-07T09:19:17;94994.44;;;4.11;100.00
13314;BME280;6725;48.112;11.604;2022-12-07T09:21:42;94993.66;;;4.14;100.00
13314;BME280;6725;48.112;11.604;2022-12-07T09:24:08;94993.66;;;4.14;100.00
13314;BME280;6725;48.112;11.604;2022-12-07T09:26:34;95002.94;;;4.13;100.00
13314;BME280;6725;48.112;11.604;2022-12-07T09:29:01;95007.59;;;4.16;100.00
13314;BME280;6725;48.112;11.604;2022-12-07T09:31:27;95000.00;;;4.28;100.00
13314;BME280;6725;48.112;11.604;2022-12-07T09:33:59;95006.72;;;4.45;100.00
13314;BME280;6725;48.112;11.604;2022-12-07T09:36:25;95009.50;;;4.55;100.00
13314;BME280;6725;48.112;11.604;2022-12-07T09:38:51;95016.50;;;4.63;100.00
13314;BME280;6725;48.112;11.604;2022-12-07T09:41:17;95024.41;;;4.82;100.00
13314;BME280;6725;48.112;11.604;2022-12-07T09:43:44;95028.38;;;4.99;100.00
13314;BME280;6725;48.112;11.604;2022-12-07T09:46:14;95039.31;;;5.13;100.00
13314;BME280;6725;48.112;11.604;2022-12-07T09:48:42;95042.44;;;5.22;100.00
13314;BME280;6725;48.112;11.604;2022-12-07T09:51:17;95057.25;;;5.42;100.00
13314;BME280;6725;48.112;11.604;2022-12-07T09:53:43;95072.81;;;5.55;100.00
13314;BME280;6725;48.112;11.604;2022-12-07T09:56:17;95084.81;;;5.61;100.00
13314;BME280;6725;48.112;11.604;2022-12-07T09:58:44;95094.47;;;5.59;100.00
13314;BME280;6725;48.112;11.604;2022-12-07T10:03:40;95116.22;;;5.73;100.00
13314;BME280;6725;48.112;11.604;2022-12-07T10:06:06;95116.69;;;5.82;100.00
13314;BME280;6725;48.112;11.604;2022-12-07T10:08:32;95125.66;;;5.89;100.00
13314;BME280;6725;48.112;11.604;2022-12-07T10:11:01;95117.03;;;5.77;100.00
13314;BME280;6725;48.112;11.604;2022-12-07T10:13:35;95133.34;;;5.84;100.00
13314;BME280;6725;48.112;11.604;2022-12-07T10:16:01;95138.03;;;5.87;100.00
13314;BME280;6725;48.112;11.604;2022-12-07T10:23:34;95148.25;;;6.25;100.00
13314;BME280;6725;48.112;11.604;2022-12-07T10:26:19;95148.34;;;6.46;100.00
13314;BME280;6725;48.112;11.604;2022-12-07T10:28:46;95151.44;;;6.41;100.00
13314;BME280;6725;48.112;11.604;2022-12-07T10:31:17;95151.47;;;6.51;100.00
13314;BME280;6725;48.112;11.604;2022-12-07T10:33:54;95153.38;;;6.51;100.00
13314;BME280;6725;48.112;11.604;2022-12-07T10:36:30;95151.84;;;6.46;100.00
13314;BME280;6725;48.112;11.604;2022-12-07T10:41:28;95160.00;;;6.57;100.00
13314;BME280;6725;48.112;11.604;2022-12-07T10:43:56;95157.66;;;6.45;100.00
13314;BME280;6725;48.112;11.604;2022-12-07T10:49:30;95160.72;;;6.40;100.00
13314;BME280;6725;48.112;11.604;2022-12-07T10:54:51;95156.84;;;6.41;100.00
13314;BME280;6725;48.112;11.604;2022-12-07T10:57:47;95154.06;;;6.20;100.00
13314;BME280;6725;48.112;11.604;2022-12-07T11:00:31;95151.72;;;6.22;100.00
13314;BME280;6725;48.112;11.604;2022-12-07T11:03:26;95148.94;;;6.04;100.00
13314;BME280;6725;48.112;11.604;2022-12-07T11:11:12;95144.91;;;5.77;100.00
13314;BME280;6725;48.112;11.604;2022-12-07T11:21:58;95135.69;;;5.85;100.00
13314;BME280;6725;48.112;11.604;2022-12-07T11:35:14;95125.91;;;6.56;100.00
13314;BME280;6725;48.112;11.604;2022-12-07T11:37:44;95130.53;;;6.59;100.00
13314;BME280;6725;48.112;11.604;2022-12-07T11:40:20;95129.75;;;6.48;100.00
13314;BME280;6725;48.112;11.604;2022-12-07T11:45:41;95128.25;;;6.68;100.00
13314;BME280;6725;48.112;11.604;2022-12-07T11:50:45;95124.78;;;6.74;100.00
13314;BME280;6725;48.112;11.604;2022-12-07T12:01:00;95112.63;;;6.23;100.00
13314;BME280;6725;48.112;11.604;2022-12-07T12:03:34;95109.50;;;6.14;100.00
13314;BME280;6725;48.112;11.604;2022-12-07T12:06:03;95101.75;;;6.16;100.00
13314;BME280;6725;48.112;11.604;2022-12-07T12:08:46;95109.88;;;6.09;100.00
13314;BME280;6725;48.112;11.604;2022-12-07T12:19:36;95087.44;;;6.26;100.00
13314;BME280;6725;48.112;11.604;2022-12-07T12:22:17;95080.13;;;6.44;100.00
13314;BME280;6725;48.112;11.604;2022-12-07T12:24:45;95080.94;;;6.62;100.00
13314;BME280;6725;48.112;11.604;2022-12-07T12:27:25;95084.00;;;6.32;100.00
13314;BME280;6725;48.112;11.604;2022-12-07T12:29:55;95070.81;;;6.31;100.00
13314;BME280;6725;48.112;11.604;2022-12-07T12:32:24;95079.34;;;6.40;100.00
13314;BME280;6725;48.112;11.604;2022-12-07T12:42:49;95082.03;;;6.22;100.00
13314;BME280;6725;48.112;11.604;2022-12-07T12:48:03;95077.66;;;5.90;100.00
13314;BME280;6725;48.112;11.604;2022-12-07T12:50:33;95072.91;;;5.76;100.00
13314;BME280;6725;48.112;11.604;2022-12-07T12:53:25;95069.88;;;5.85;100.00
13314;BME280;6725;48.112;11.604;2022-12-07T12:58:30;95066.81;;;5.93;100.00
13314;BME280;6725;48.112;11.604;2022-12-07T13:03:57;95067.63;;;6.01;100.00
13314;BME280;6725;48.112;11.604;2022-12-07T13:08:53;95060.69;;;6.07;100.00
13314;BME280;6725;48.112;11.604;2022-12-07T13:11:32;95066.81;;;5.97;100.00
13314;BME280;6725;48.112;11.604;2022-12-07T13:17:01;95047.34;;;5.74;100.00
13314;BME280;6725;48.112;11.604;2022-12-07T13:27:59;95053.41;;;5.46;100.00
13314;BME280;6725;48.112;11.604;2022-12-07T13:30:27;95049.94;;;5.49;100.00
13314;BME280;6725;48.112;11.604;2022-12-07T13:32:57;95046.91;;;5.58;100.00
13314;BME280;6725;48.112;11.604;2022-12-07T13:35:28;95044.16;;;5.54;100.00
13314;BME280;6725;48.112;11.604;2022-12-07T13:37:53;95045.66;;;5.45;100.00
13314;BME280;6725;48.112;11.604;2022-12-07T13:40:21;95050.69;;;5.43;100.00
13314;BME280;6725;48.112;11.604;2022-12-07T13:42:46;95048.75;;;5.40;100.00
13314;BME280;6725;48.112;11.604;2022-12-07T13:45:23;95043.38;;;5.50;100.00
13314;BME280;6725;48.112;11.604;2022-12-07T13:50:57;95041.81;;;5.53;100.00
13314;BME280;6725;48.112;11.604;2022-12-07T13:53:23;95047.28;;;5.60;100.00
13314;BME280;6725;48.112;11.604;2022-12-07T13:55:49;95038.06;;;5.75;100.00
13314;BME280;6725;48.112;11.604;2022-12-07T13:58:15;95039.63;;;5.79;100.00
13314;BME280;6725;48.112;11.604;2022-12-07T14:00:42;95031.97;;;5.92;100.00
13314;BME280;6725;48.112;11.604;2022-12-07T14:05:36;95040.53;;;6.01;100.00
13314;BME280;6725;48.112;11.604;2022-12-07T14:08:05;95041.28;;;6.01;100.00
13314;BME280;6725;48.112;11.604;2022-12-07T14:10:37;95033.50;;;5.86;100.00
13314;BME280;6725;48.112;11.604;2022-12-07T14:15:54;95039.19;;;5.67;100.00
13314;BME280;6725;48.112;11.604;2022-12-07T14:18:28;95034.88;;;5.52;100.00
13314;BME280;6725;48.112;11.604;2022-12-07T14:21:27;95029.00;;;5.36;100.00
13314;BME280;6725;48.112;11.604;2022-12-07T14:26:38;95030.91;;;5.32;100.00
13314;BME280;6725;48.112;11.604;2022-12-07T14:29:30;95029.69;;;5.26;100.00
13314;BME280;6725;48.112;11.604;2022-12-07T14:31:57;95027.00;;;5.26;100.00
13314;BME280;6725;48.112;11.604;2022-12-07T14:34:24;95032.44;;;5.33;100.00
13314;BME280;6725;48.112;11.604;2022-12-07T14:36:50;95027.03;;;5.29;100.00
13314;BME280;6725;48.112;11.604;2022-12-07T14:39:15;95021.22;;;5.31;100.00
13314;BME280;6725;48.112;11.604;2022-12-07T14:41:41;95023.13;;;5.23;100.00
13314;BME280;6725;48.112;11.604;2022-12-07T14:44:20;95015.75;;;5.17;100.00
13314;BME280;6725;48.112;11.604;2022-12-07T14:46:46;95023.81;;;5.10;100.00
13314;BME280;6725;48.112;11.604;2022-12-07T14:49:12;95025.25;;;4.97;100.00
13314;BME280;6725;48.112;11.604;2022-12-07T14:51:39;95024.41;;;4.86;100.00
13314;BME280;6725;48.112;11.604;2022-12-07T14:54:12;95023.09;;;4.66;100.00
13314;BME280;6725;48.112;11.604;2022-12-07T14:56:39;95020.28;;;4.52;100.00
13314;BME280;6725;48.112;11.604;2022-12-07T14:59:04;95009.34;;;4.38;100.00
13314;BME280;6725;48.112;11.604;2022-12-07T15:01:29;95007.72;;;4.30;100.00
13314;BME280;6725;48.112;11.604;2022-12-07T15:03:55;94999.91;;;4.18;100.00
13314;BME280;6725;48.112;11.604;2022-12-07T15:06:20;94991.69;;;4.07;100.00
13314;BME280;6725;48.112;11.604;2022-12-07T15:08:46;94987.34;;;3.96;100.00
13314;BME280;6725;48.112;11.604;2022-12-07T15:11:13;94974.09;;;3.84;100.00
13314;BME280;6725;48.112;11.604;2022-12-07T15:13:38;94976.31;;;3.75;100.00
13314;BME280;6725;48.112;11.604;2022-12-07T15:16:22;94963.13;;;3.70;100.00
13314;BME280;6725;48.112;11.604;2022-12-07T15:18:48;94962.25;;;3.58;100.00
13314;BME280;6725;48.112;11.604;2022-12-07T15:21:14;94958.28;;;3.49;100.00
13314;BME280;6725;48.112;11.604;2022-12-07T15:23:40;94944.75;;;3.45;100.00
13314;BME280;6725;48.112;11.604;2022-12-07T15:26:06;94926.59;;;3.42;100.00
13314;BME280;6725;48.112;11.604;2022-12-07T15:28:33;94919.59;;;3.38;100.00
13314;BME280;6725;48.112;11.604;2022-12-07T15:30:58;94916.47;;;3.32;100.00
13314;BME280;6725;48.112;11.604;2022-12-07T15:33:24;94909.44;;;3.24;100.00